LMN weather

Limbang Airport
Limbang, Sarawak, Malaysia

Public forecast

Using degrees Celsius for public forecast. Weather courtesy of forecast.io.

Closest aviation weather report (METAR) to Limbang Airport

Closest report is Brunei International Airport, 9.5 nm (17.6 km) NNW. Retrieved 2019/12/10 16:30 UTC (0 seconds ago):

WBSB 101630Z 24002KT 9999 FEW015 BKN140 26/24 Q1010 NOSIG

Closest aviation forecast (TAF) to Limbang Airport

Closest forecast is Brunei International Airport, 9.5 nm (17.6 km) NNW. Retrieved 2019/12/10 12:18 UTC (4 hours ago):

TAF WBSB 101100Z 1012/1118 02004KT 9999 SCT015 FEW016CB TEMPO 1012/1015 7000 SHRA TSRA TEMPO 1021/1023 5000 SHRA BECMG 1102/1104 33010KT SCT016 FEW017CB